createdAt,value
2018-11-12T00:00:46.296Z,70.48
2018-11-12T00:03:14.604Z,70.86
2018-11-12T00:05:42.958Z,70.65
2018-11-12T00:08:11.233Z,70.33
2018-11-12T00:10:39.550Z,69.52
2018-11-12T00:13:07.783Z,70.14
2018-11-12T00:15:36.092Z,69.89
2018-11-12T00:18:04.584Z,70.54
2018-11-12T00:20:32.892Z,70.21
2018-11-12T00:23:01.105Z,70.51
2018-11-12T00:25:29.434Z,70.93
2018-11-12T00:27:58.100Z,70.24
2018-11-12T00:30:26.369Z,69.86
2018-11-12T00:32:54.678Z,69.27
2018-11-12T00:35:23.752Z,69.79
2018-11-12T00:37:52.049Z,69.58
2018-11-12T00:40:20.309Z,69.88
2018-11-12T00:42:49.062Z,69.27
2018-11-12T00:45:17.456Z,69.18
2018-11-12T00:47:45.818Z,69.93
2018-11-12T00:50:15.142Z,69.27
2018-11-12T00:52:43.423Z,69.71
2018-11-12T00:55:13.225Z,70.01
2018-11-12T00:57:41.887Z,69.80
2018-11-12T01:00:18.807Z,69.28
2018-11-12T01:02:48.735Z,70.07
2018-11-12T01:05:18.337Z,69.19
2018-11-12T01:07:47.319Z,70.28
2018-11-12T01:10:20.070Z,69.31
2018-11-12T01:12:48.350Z,69.66
2018-11-12T01:15:23.275Z,69.32
2018-11-12T01:17:51.540Z,69.69
2018-11-12T01:20:20.294Z,69.63
2018-11-12T01:22:49.461Z,70.64
2018-11-12T01:25:17.679Z,70.92
2018-11-12T01:27:46.011Z,71.54
2018-11-12T01:30:15.513Z,71.82
2018-11-12T01:32:43.921Z,72.33
2018-11-12T01:35:13.383Z,73.06
2018-11-12T01:37:41.606Z,73.07
2018-11-12T01:40:11.412Z,73.46
2018-11-12T01:42:39.736Z,74.49
2018-11-12T01:45:12.255Z,73.33
2018-11-12T01:47:40.600Z,75.13
2018-11-12T01:50:10.329Z,74.49
2018-11-12T01:52:38.663Z,75.13
2018-11-12T01:55:08.868Z,75.53
2018-11-12T01:57:37.125Z,75.46
2018-11-12T02:00:09.604Z,74.87
2018-11-12T02:02:37.860Z,75.55
2018-11-12T02:05:07.630Z,75.52
2018-11-12T02:07:36.682Z,76.11
2018-11-12T02:10:06.728Z,76.22
2018-11-12T02:12:35.005Z,76.06
2018-11-12T02:15:03.771Z,76.29
2018-11-12T02:17:32.048Z,76.30
2018-11-12T02:20:00.628Z,76.95
2018-11-12T02:22:28.891Z,76.92
2018-11-12T02:24:57.081Z,77.12
2018-11-12T02:27:25.390Z,77.45
2018-11-12T02:29:53.636Z,77.71
2018-11-12T02:32:21.870Z,77.26
2018-11-12T02:34:50.156Z,78.10
2018-11-12T02:37:18.400Z,77.63
2018-11-12T02:39:46.912Z,77.38
2018-11-12T02:42:16.434Z,78.43
2018-11-12T02:44:45.119Z,78.32
2018-11-12T02:47:13.375Z,78.26
2018-11-12T02:49:41.662Z,77.67
2018-11-12T02:52:09.957Z,78.03
2018-11-12T02:54:38.300Z,77.78
2018-11-12T02:57:13.095Z,78.50
2018-11-12T02:59:41.513Z,77.88
2018-11-12T03:02:09.796Z,77.60
2018-11-12T03:04:38.216Z,77.22
2018-11-12T03:07:06.411Z,77.76
2018-11-12T03:09:34.671Z,77.94
2018-11-12T03:12:03.227Z,77.74
2018-11-12T03:14:31.529Z,77.84
2018-11-12T03:16:59.925Z,77.86
2018-11-12T03:19:28.219Z,77.12
2018-11-12T03:21:56.497Z,77.11
2018-11-12T03:24:24.785Z,77.53
2018-11-12T03:26:53.043Z,78.08
2018-11-12T03:29:21.357Z,77.33
2018-11-12T03:31:49.584Z,77.09
2018-11-12T03:34:17.863Z,77.20
2018-11-12T03:36:46.135Z,76.37
2018-11-12T03:39:14.397Z,76.86
2018-11-12T03:41:42.574Z,76.44
2018-11-12T03:44:10.890Z,77.01
2018-11-12T03:46:39.130Z,77.01
2018-11-12T03:49:07.368Z,76.87
2018-11-12T03:51:35.568Z,76.54
2018-11-12T03:54:03.920Z,76.22
2018-11-12T03:56:32.141Z,76.02
2018-11-12T03:59:00.275Z,75.31
2018-11-12T04:01:34.008Z,75.52
2018-11-12T04:04:02.241Z,74.76
2018-11-12T04:06:30.448Z,75.46
2018-11-12T04:08:58.653Z,75.25
2018-11-12T04:11:27.362Z,74.67
2018-11-12T04:13:55.628Z,74.77
2018-11-12T04:16:23.880Z,75.08
2018-11-12T04:18:52.111Z,74.76
2018-11-12T04:21:20.435Z,74.62
2018-11-12T04:23:48.717Z,74.00
2018-11-12T04:26:16.903Z,73.38
2018-11-12T04:28:45.158Z,74.08
2018-11-12T04:31:13.369Z,73.32
2018-11-12T04:33:41.563Z,73.20
2018-11-12T04:36:09.896Z,72.73
2018-11-12T04:38:38.134Z,73.58
2018-11-12T04:41:06.394Z,73.74
2018-11-12T04:43:34.601Z,73.61
2018-11-12T04:46:02.871Z,73.92
2018-11-12T04:48:31.080Z,73.41
2018-11-12T04:50:59.428Z,74.13
2018-11-12T04:53:28.703Z,74.33
2018-11-12T04:55:56.999Z,74.14
2018-11-12T04:58:25.221Z,73.87
2018-11-12T05:00:53.877Z,74.28
2018-11-12T05:03:22.156Z,74.37
2018-11-12T05:05:50.409Z,74.01
2018-11-12T05:08:18.639Z,72.86
2018-11-12T05:10:46.853Z,73.31
2018-11-12T05:13:15.082Z,73.88
2018-11-12T05:15:43.317Z,73.84
2018-11-12T05:18:11.552Z,74.31
2018-11-12T05:20:39.809Z,74.11
2018-11-12T05:23:08.147Z,74.21
2018-11-12T05:25:36.439Z,74.25
2018-11-12T05:28:04.697Z,74.65
2018-11-12T05:30:51.783Z,74.60
2018-11-12T05:33:20.031Z,74.14
2018-11-12T05:35:48.632Z,73.25
2018-11-12T05:38:16.948Z,73.48
2018-11-12T05:40:45.232Z,74.17
2018-11-12T05:43:13.479Z,74.08
2018-11-12T05:45:42.334Z,73.64
2018-11-12T05:48:10.627Z,75.17
2018-11-12T05:50:38.933Z,74.24
2018-11-12T05:53:07.168Z,74.73
2018-11-12T05:55:35.376Z,75.24
2018-11-12T05:58:03.660Z,75.16
2018-11-12T06:00:34.370Z,75.16
2018-11-12T06:03:02.670Z,75.37
2018-11-12T06:05:31.601Z,75.85
2018-11-12T06:07:59.951Z,76.69
2018-11-12T06:10:29.200Z,75.96
2018-11-12T06:12:57.464Z,75.85
2018-11-12T06:15:25.727Z,75.36
2018-11-12T06:17:54.000Z,74.93
2018-11-12T06:20:31.062Z,75.52
2018-11-12T06:22:59.324Z,75.11
2018-11-12T06:25:30.013Z,74.66
2018-11-12T06:27:58.309Z,75.73
2018-11-12T06:30:28.512Z,75.04
2018-11-12T06:32:56.838Z,75.31
2018-11-12T06:35:25.141Z,75.57
2018-11-12T06:37:53.780Z,74.09
2018-11-12T06:40:23.605Z,74.78
2018-11-12T06:42:52.288Z,74.50
2018-11-12T06:45:22.622Z,74.74
2018-11-12T06:47:51.637Z,73.19
2018-11-12T06:50:22.041Z,72.31
2018-11-12T06:52:50.482Z,71.17
2018-11-12T06:55:19.685Z,70.54
2018-11-12T06:57:49.207Z,69.86
2018-11-12T07:00:23.663Z,70.03
2018-11-12T07:02:51.930Z,70.35
2018-11-12T07:05:20.751Z,71.37
2018-11-12T07:07:49.016Z,71.28
2018-11-12T07:10:20.103Z,70.91
2018-11-12T07:12:49.315Z,71.24
2018-11-12T07:15:18.597Z,71.21
2018-11-12T07:17:47.595Z,71.66
2018-11-12T07:20:18.688Z,71.25
2018-11-12T07:22:47.648Z,71.37
2018-11-12T07:25:17.298Z,71.32
2018-11-12T07:27:45.761Z,71.11
2018-11-12T07:30:18.063Z,71.29
2018-11-12T07:32:46.998Z,70.71
2018-11-12T07:35:15.832Z,70.21
2018-11-12T07:37:45.077Z,70.03
2018-11-12T07:40:13.887Z,70.92
2018-11-12T07:42:42.477Z,71.14
2018-11-12T07:45:15.072Z,70.58
2018-11-12T07:47:44.466Z,70.29
2018-11-12T07:50:14.092Z,70.16
2018-11-12T07:52:42.498Z,70.94
2018-11-12T07:55:14.397Z,70.01
2018-11-12T07:57:45.642Z,70.25
2018-11-12T08:00:22.186Z,70.71
2018-11-12T08:02:54.286Z,71.48
2018-11-12T08:05:22.518Z,70.83
2018-11-12T08:07:50.809Z,70.56
2018-11-12T08:10:19.453Z,70.67
2018-11-12T08:12:47.915Z,71.74
2018-11-12T08:15:17.926Z,71.49
2018-11-12T08:17:46.401Z,70.70
2018-11-12T08:20:17.254Z,70.39
2018-11-12T08:22:46.548Z,70.83
2018-11-12T08:25:14.812Z,70.55
2018-11-12T08:27:43.858Z,70.92
2018-11-12T08:30:30.254Z,70.64
2018-11-12T08:32:59.877Z,71.31
2018-11-12T08:35:28.104Z,70.76
2018-11-12T08:37:57.610Z,70.78
2018-11-12T08:40:28.155Z,70.23
2018-11-12T08:42:56.336Z,69.84
2018-11-12T08:45:24.676Z,69.81
2018-11-12T08:47:53.972Z,69.29
2018-11-12T08:50:23.405Z,68.43
2018-11-12T08:52:52.943Z,68.79
2018-11-12T08:55:23.444Z,68.00
2018-11-12T08:57:53.074Z,67.34
2018-11-12T09:00:22.556Z,65.82
2018-11-12T09:02:51.014Z,63.69
2018-11-12T09:05:20.797Z,63.39
2018-11-12T09:07:51.885Z,60.84
2018-11-12T09:10:24.159Z,59.79
2018-11-12T09:12:52.503Z,60.12
2018-11-12T09:15:20.961Z,60.02
2018-11-12T09:17:49.415Z,61.07
2018-11-12T09:20:20.977Z,62.19
2018-11-12T09:22:49.198Z,59.99
2018-11-12T09:25:19.258Z,50.66
2018-11-12T09:27:47.643Z,47.86
2018-11-12T09:30:22.218Z,48.79
2018-11-12T09:32:50.660Z,48.23
2018-11-12T09:35:26.466Z,48.18
2018-11-12T09:37:55.487Z,48.80
2018-11-12T09:40:27.653Z,49.76
2018-11-12T09:42:55.922Z,49.71
2018-11-12T09:45:24.325Z,51.25
2018-11-12T09:47:52.578Z,50.93
2018-11-12T09:50:21.922Z,50.36
2018-11-12T09:52:51.346Z,45.17
2018-11-12T09:55:20.574Z,36.01
2018-11-12T09:57:51.768Z,31.69
2018-11-12T10:00:20.552Z,27.97
2018-11-12T10:02:50.136Z,27.20
2018-11-12T10:05:19.456Z,25.91
2018-11-12T10:07:53.152Z,25.21
2018-11-12T10:10:36.705Z,27.54
2018-11-12T10:13:08.032Z,30.80
2018-11-12T10:15:35.920Z,30.92
2018-11-12T10:18:03.797Z,29.38
2018-11-12T10:20:29.733Z,30.46
2018-11-12T10:22:58.012Z,31.11
2018-11-12T10:25:26.278Z,31.74
2018-11-12T10:27:56.406Z,31.07
2018-11-12T10:30:24.674Z,31.36
2018-11-12T10:32:52.910Z,30.27
2018-11-12T10:35:21.223Z,27.51
2018-11-12T10:37:49.576Z,29.74
2018-11-12T10:40:19.485Z,30.60
2018-11-12T10:42:47.910Z,33.50
2018-11-12T10:45:17.598Z,34.67
2018-11-12T10:47:47.070Z,32.44
2018-11-12T10:53:15.100Z,25.70
2018-11-12T10:55:43.731Z,24.19
2018-11-12T10:58:11.846Z,23.55
2018-11-12T11:00:45.607Z,23.12
2018-11-12T11:03:44.608Z,23.28
2018-11-12T11:06:12.901Z,22.70
2018-11-12T11:08:41.171Z,22.21
2018-11-12T11:11:09.377Z,21.40
2018-11-12T11:13:37.724Z,21.90
2018-11-12T11:16:05.917Z,21.82
2018-11-12T11:18:34.244Z,21.77
2018-11-12T11:21:02.522Z,21.04
2018-11-12T11:23:30.731Z,21.18
2018-11-12T11:25:58.929Z,21.22
2018-11-12T11:28:27.305Z,19.97
2018-11-12T11:30:55.469Z,19.27
2018-11-12T11:33:23.624Z,19.87
2018-11-12T11:35:51.910Z,19.72
2018-11-12T11:38:20.198Z,19.70
2018-11-12T11:40:48.470Z,20.34
2018-11-12T11:43:16.757Z,21.18
2018-11-12T11:45:45.528Z,21.54
2018-11-12T11:48:13.753Z,24.59
2018-11-12T11:50:42.051Z,29.45
2018-11-12T11:53:10.245Z,34.00
2018-11-12T11:55:38.674Z,37.20
2018-11-12T11:58:06.886Z,39.97
2018-11-12T12:00:35.075Z,41.92
2018-11-12T12:03:03.349Z,42.79
2018-11-12T12:05:31.532Z,45.29
2018-11-12T12:07:59.755Z,44.99
2018-11-12T12:10:30.072Z,45.83
2018-11-12T12:12:59.428Z,45.93
2018-11-12T12:15:27.738Z,46.26
2018-11-12T12:17:56.026Z,46.53
2018-11-12T12:20:32.229Z,46.65
2018-11-12T12:23:00.435Z,46.66
2018-11-12T12:25:28.740Z,45.54
2018-11-12T12:27:56.939Z,45.66
2018-11-12T12:30:26.456Z,44.51
2018-11-12T12:32:55.452Z,44.10
2018-11-12T12:35:23.675Z,43.50
2018-11-12T12:37:52.235Z,42.59
2018-11-12T12:40:21.952Z,42.03
2018-11-12T12:42:50.242Z,41.34
2018-11-12T12:45:19.979Z,41.73
2018-11-12T12:47:48.843Z,42.27
2018-11-12T12:50:17.965Z,42.00
2018-11-12T12:52:46.131Z,42.02
2018-11-12T12:55:15.516Z,41.43
2018-11-12T12:57:44.301Z,42.28
2018-11-12T13:00:16.047Z,42.31
2018-11-12T13:02:44.295Z,42.47
2018-11-12T13:05:12.576Z,42.88
2018-11-12T13:07:41.794Z,41.69
2018-11-12T13:10:12.900Z,41.73
2018-11-12T13:12:41.243Z,41.28
2018-11-12T13:15:11.802Z,40.22
2018-11-12T13:17:40.164Z,40.55
2018-11-12T13:20:11.881Z,39.91
2018-11-12T13:22:41.621Z,39.94
2018-11-12T13:25:10.347Z,39.56
2018-11-12T13:27:39.401Z,39.49
2018-11-12T13:30:13.932Z,39.22
2018-11-12T13:32:42.717Z,39.60
2018-11-12T13:35:12.843Z,41.57
2018-11-12T13:37:41.068Z,42.01
2018-11-12T13:40:17.324Z,42.99
2018-11-12T13:42:48.007Z,43.88
2018-11-12T13:45:16.151Z,44.41
2018-11-12T13:47:45.476Z,43.36
2018-11-12T13:50:20.652Z,43.92
2018-11-12T13:52:49.313Z,43.63
2018-11-12T13:55:18.612Z,44.15
2018-11-12T13:57:46.912Z,43.85
2018-11-12T14:00:17.067Z,43.51
2018-11-12T14:02:46.426Z,44.12
2018-11-12T14:05:18.359Z,44.12
2018-11-12T14:07:46.843Z,44.46
2018-11-12T14:10:17.271Z,44.38
2018-11-12T14:12:47.315Z,44.74
2018-11-12T14:15:19.059Z,43.88
2018-11-12T14:17:48.242Z,42.95
2018-11-12T14:20:16.518Z,43.07
2018-11-12T14:22:44.645Z,42.51
2018-11-12T14:25:14.368Z,42.74
2018-11-12T14:27:43.083Z,40.40
2018-11-12T14:30:15.297Z,37.50
2018-11-12T14:32:43.696Z,38.47
2018-11-12T14:35:13.181Z,39.85
2018-11-12T14:37:43.826Z,40.10
2018-11-12T14:40:13.173Z,40.94
2018-11-12T14:42:42.237Z,41.30
2018-11-12T14:45:13.111Z,41.65
2018-11-12T14:47:42.051Z,42.24
2018-11-12T14:50:10.805Z,42.33
2018-11-12T14:52:39.557Z,42.55
2018-11-12T14:55:13.866Z,42.95
2018-11-12T14:57:42.177Z,42.91
2018-11-12T15:00:17.787Z,43.86
2018-11-12T15:02:46.053Z,43.04
2018-11-12T15:05:15.773Z,43.73
2018-11-12T15:07:44.050Z,44.21
2018-11-12T15:10:13.309Z,43.81
2018-11-12T15:12:42.477Z,44.17
2018-11-12T15:15:11.956Z,44.52
2018-11-12T15:17:40.163Z,44.94
2018-11-12T15:20:10.942Z,45.30
2018-11-12T15:22:39.310Z,45.72
2018-11-12T15:25:18.651Z,46.34
2018-11-12T15:27:46.917Z,46.43
2018-11-12T15:30:16.635Z,46.08
2018-11-12T15:32:45.882Z,47.56
2018-11-12T15:35:14.160Z,47.48
2018-11-12T15:37:43.638Z,47.83
2018-11-12T15:40:12.877Z,48.15
2018-11-12T15:42:41.542Z,47.91
2018-11-12T15:45:13.557Z,48.51
2018-11-12T15:47:43.161Z,49.35
2018-11-12T15:50:15.563Z,49.42
2018-11-12T15:52:44.836Z,49.45
2018-11-12T15:55:13.120Z,49.90
2018-11-12T15:57:41.372Z,50.07
2018-11-12T16:00:14.377Z,50.47
2018-11-12T16:02:42.659Z,51.54
2018-11-12T16:05:11.860Z,51.44
2018-11-12T16:07:40.111Z,51.24
2018-11-12T16:10:15.751Z,51.48
2018-11-12T16:12:44.049Z,52.01
2018-11-12T16:15:13.321Z,52.06
2018-11-12T16:17:41.623Z,52.45
2018-11-12T16:20:19.818Z,53.71
2018-11-12T16:22:48.749Z,53.83
2018-11-12T16:25:17.360Z,53.27
2018-11-12T16:27:45.612Z,53.86
2018-11-12T16:30:41.366Z,54.25
2018-11-12T16:33:10.657Z,54.39
2018-11-12T16:35:39.010Z,54.67
2018-11-12T16:38:07.319Z,55.32
2018-11-12T16:40:49.780Z,55.68
2018-11-12T16:43:18.186Z,56.18
2018-11-12T16:45:46.820Z,55.72
2018-11-12T16:48:15.168Z,56.44
2018-11-12T16:50:43.605Z,57.53
2018-11-12T16:53:18.037Z,56.98
2018-11-12T16:56:05.646Z,57.30
2018-11-12T16:58:33.869Z,57.27
2018-11-12T17:01:02.155Z,57.38
2018-11-12T17:03:30.585Z,57.47
2018-11-12T17:05:58.837Z,58.90
2018-11-12T17:08:27.049Z,58.74
2018-11-12T17:10:58.045Z,60.04
2018-11-12T17:13:26.282Z,59.71
2018-11-12T17:15:54.509Z,59.56
2018-11-12T17:18:22.782Z,59.43
2018-11-12T17:20:50.964Z,60.25
2018-11-12T17:23:19.127Z,60.32
2018-11-12T17:25:47.363Z,60.83
2018-11-12T17:28:15.686Z,60.83
2018-11-12T17:30:44.050Z,61.35
2018-11-12T17:33:13.956Z,61.43
2018-11-12T17:35:42.545Z,62.30
2018-11-12T17:38:46.666Z,61.49
2018-11-12T17:41:14.994Z,62.30
2018-11-12T17:43:43.349Z,61.01
2018-11-12T17:46:11.492Z,61.88
2018-11-12T17:48:39.802Z,61.37
2018-11-12T17:51:07.931Z,60.84
2018-11-12T17:53:36.120Z,60.75
2018-11-12T17:56:04.496Z,60.17
2018-11-12T17:58:32.977Z,59.73
2018-11-12T18:01:01.785Z,59.13
2018-11-12T18:03:30.561Z,59.94
2018-11-12T18:05:58.786Z,58.84
2018-11-12T18:08:26.906Z,59.56
2018-11-12T18:10:55.126Z,59.79
2018-11-12T18:13:23.375Z,59.84
2018-11-12T18:15:51.508Z,59.43
2018-11-12T18:18:26.393Z,59.61
2018-11-12T18:20:55.754Z,59.88
2018-11-12T18:23:24.052Z,60.23
2018-11-12T18:25:52.429Z,60.27
2018-11-12T18:28:20.666Z,60.32
2018-11-12T18:30:49.313Z,60.25
2018-11-12T18:33:17.112Z,60.39
2018-11-12T18:35:46.291Z,60.13
2018-11-12T18:38:14.581Z,60.81
2018-11-12T18:40:42.885Z,60.94
2018-11-12T18:43:11.975Z,60.88
2018-11-12T18:45:40.263Z,60.47
2018-11-12T18:48:08.542Z,61.03
2018-11-12T18:50:36.807Z,61.33
2018-11-12T18:53:05.144Z,61.73
2018-11-12T18:55:35.324Z,61.09
2018-11-12T18:58:03.778Z,61.51
2018-11-12T19:00:32.265Z,60.96
2018-11-12T19:03:00.977Z,61.47
2018-11-12T19:05:29.385Z,61.08
2018-11-12T19:08:00.485Z,61.93
2018-11-12T19:10:30.921Z,63.04
2018-11-12T19:12:59.883Z,63.17
2018-11-12T19:15:33.040Z,63.53
2018-11-12T19:18:06.325Z,62.98
2018-11-12T19:20:34.650Z,63.56
2018-11-12T19:23:03.403Z,63.25
2018-11-12T19:25:31.751Z,63.03
2018-11-12T19:28:00.248Z,63.43
2018-11-12T19:30:29.462Z,64.18
2018-11-12T19:33:02.637Z,63.78
2018-11-12T19:35:32.729Z,64.04
2018-11-12T19:38:02.604Z,64.62
2018-11-12T19:40:32.090Z,64.19
2018-11-12T19:43:00.334Z,64.13
2018-11-12T19:45:28.699Z,64.84
2018-11-12T19:47:57.345Z,64.04
2018-11-12T19:50:26.909Z,63.91
2018-11-12T19:52:57.049Z,64.75
2018-11-12T19:55:25.267Z,64.80
2018-11-12T19:57:53.541Z,65.78
2018-11-12T20:00:24.185Z,65.13
2018-11-12T20:02:54.767Z,65.43
2018-11-12T20:05:23.193Z,65.38
2018-11-12T20:07:51.744Z,65.57
2018-11-12T20:10:20.987Z,65.78
2018-11-12T20:12:49.269Z,66.64
2018-11-12T20:15:18.754Z,67.04
2018-11-12T20:17:48.958Z,66.23
2018-11-12T20:20:19.718Z,65.84
2018-11-12T20:22:48.654Z,66.44
2018-11-12T20:25:18.038Z,66.60
2018-11-12T20:27:47.640Z,66.54
2018-11-12T20:30:22.884Z,67.11
2018-11-12T20:32:51.261Z,66.22
2018-11-12T20:35:19.613Z,66.63
2018-11-12T20:37:48.174Z,67.40
2018-11-12T20:40:17.522Z,67.35
2018-11-12T20:42:47.059Z,66.61
2018-11-12T20:45:16.843Z,67.15
2018-11-12T20:47:50.059Z,67.62
2018-11-12T20:50:19.073Z,67.61
2018-11-12T20:52:47.336Z,67.55
2018-11-12T20:55:16.427Z,67.71
2018-11-12T20:57:44.943Z,67.84
2018-11-12T21:00:16.359Z,67.29
2018-11-12T21:02:46.717Z,67.40
2018-11-12T21:05:15.704Z,68.06
2018-11-12T21:07:43.883Z,67.35
2018-11-12T21:10:16.161Z,67.22
2018-11-12T21:12:46.439Z,67.76
2018-11-12T21:15:16.623Z,67.62
2018-11-12T21:17:44.892Z,68.25
2018-11-12T21:20:15.390Z,67.71
2018-11-12T21:22:43.845Z,67.61
2018-11-12T21:25:13.590Z,67.14
2018-11-12T21:27:41.818Z,66.50
2018-11-12T21:30:15.329Z,67.44
2018-11-12T21:32:43.660Z,67.11
2018-11-12T21:35:11.937Z,67.07
2018-11-12T21:37:40.242Z,67.27
2018-11-12T21:40:13.076Z,68.06
2018-11-12T21:42:41.481Z,67.78
2018-11-12T21:45:11.538Z,67.66
2018-11-12T21:47:40.999Z,67.86
2018-11-12T21:50:13.360Z,67.18
2018-11-12T21:52:41.529Z,67.95
2018-11-12T21:55:10.878Z,67.85
2018-11-12T21:57:39.554Z,68.02
2018-11-12T22:00:18.944Z,68.25
2018-11-12T22:02:48.332Z,67.46
2018-11-12T22:05:16.549Z,66.95
2018-11-12T22:07:44.819Z,66.83
2018-11-12T22:10:14.801Z,67.04
2018-11-12T22:12:44.756Z,67.12
2018-11-12T22:15:13.037Z,67.12
2018-11-12T22:17:41.869Z,67.15
2018-11-12T22:20:12.314Z,67.05
2018-11-12T22:22:41.365Z,67.34
2018-11-12T22:25:12.227Z,67.07
2018-11-12T22:27:40.978Z,66.09
2018-11-12T22:30:12.850Z,66.62
2018-11-12T22:32:41.469Z,66.15
2018-11-12T22:35:10.327Z,66.76
2018-11-12T22:37:38.691Z,66.42
2018-11-12T22:40:09.675Z,65.89
2018-11-12T22:42:38.241Z,65.28
2018-11-12T22:45:10.237Z,65.14
2018-11-12T22:47:38.508Z,64.95
2018-11-12T22:50:09.270Z,65.47
2018-11-12T22:52:38.197Z,65.52
2018-11-12T22:55:07.482Z,65.17
2018-11-12T22:57:35.783Z,64.78
2018-11-12T23:00:08.225Z,65.51
2018-11-12T23:02:36.436Z,65.88
2018-11-12T23:05:05.773Z,65.27
2018-11-12T23:07:33.890Z,65.67
2018-11-12T23:10:01.933Z,65.11
2018-11-12T23:12:30.124Z,65.41
2018-11-12T23:14:58.240Z,65.36
2018-11-12T23:17:26.356Z,65.33
2018-11-12T23:19:54.556Z,65.01
2018-11-12T23:22:22.590Z,65.22
2018-11-12T23:24:50.689Z,64.86
2018-11-12T23:27:18.862Z,65.28
2018-11-12T23:29:46.926Z,64.88
2018-11-12T23:32:15.076Z,64.28
2018-11-12T23:34:43.160Z,64.24
2018-11-12T23:37:11.277Z,64.42
2018-11-12T23:39:39.462Z,64.69
2018-11-12T23:42:07.584Z,64.79
2018-11-12T23:44:35.704Z,65.86
2018-11-12T23:47:04.545Z,65.04
2018-11-12T23:49:32.724Z,64.65
2018-11-12T23:52:00.828Z,64.79
2018-11-12T23:54:28.956Z,64.76
2018-11-12T23:56:57.121Z,65.41
2018-11-12T23:59:25.189Z,64.99
